Time;durP1;ratioP1;P1;durP2;ratioP2;P2;SDS_P1;SDS_P2;PMS_P1;PMS_P2;Temp;Humidity;BMP_temperature;BMP_pressure;BME280_temperature;BME280_humidity;BME280_pressure;Samples;Min_cycle;Max_cycle;Signal;HPM_P1;HPM_P2
2023/07/26 00:00:20;;;;;;;5.55;1.98;;;14.10;99.90;;;;;;5085592;28;20044;-71
2023/07/26 00:02:46;;;;;;;3.65;1.60;;;14.00;99.90;;;;;;5087032;28;20063;-71
2023/07/26 00:05:11;;;;;;;6.15;1.90;;;14.10;99.90;;;;;;5087057;28;20162;-70
2023/07/26 00:07:37;;;;;;;8.00;1.90;;;14.10;99.90;;;;;;5087332;28;20032;-71
2023/07/26 00:10:04;;;;;;;5.15;1.88;;;14.00;99.90;;;;;;5068990;28;20763;-70
2023/07/26 00:12:29;;;;;;;4.18;1.70;;;14.00;99.90;;;;;;5085452;28;20556;-71
2023/07/26 00:14:55;;;;;;;5.05;1.80;;;14.00;99.90;;;;;;5087332;28;20048;-70
2023/07/26 00:17:21;;;;;;;6.13;1.60;;;14.00;99.90;;;;;;5085615;28;20055;-71
2023/07/26 00:19:46;;;;;;;4.65;1.90;;;14.00;99.90;;;;;;5087215;28;20126;-71
2023/07/26 00:22:12;;;;;;;5.93;2.08;;;13.90;99.90;;;;;;5087096;28;20400;-71
2023/07/26 00:24:38;;;;;;;5.13;1.80;;;14.00;99.90;;;;;;5086792;28;20048;-71
2023/07/26 00:27:04;;;;;;;4.68;1.75;;;14.00;99.90;;;;;;5084728;28;20139;-71
2023/07/26 00:29:30;;;;;;;5.20;1.60;;;13.90;99.90;;;;;;5086646;28;20051;-71
2023/07/26 00:31:56;;;;;;;6.07;2.08;;;13.90;99.90;;;;;;5089585;28;20524;-71
2023/07/26 00:34:22;;;;;;;7.03;1.90;;;13.90;99.90;;;;;;5090416;28;20055;-71
2023/07/26 00:36:47;;;;;;;4.80;1.90;;;13.80;99.90;;;;;;5090493;28;20604;-71
2023/07/26 00:39:14;;;;;;;6.32;1.83;;;13.80;99.90;;;;;;5090277;28;20039;-71
2023/07/26 00:41:39;;;;;;;6.50;2.00;;;13.80;99.90;;;;;;5077898;28;20052;-71
2023/07/26 00:44:05;;;;;;;5.60;2.08;;;13.80;99.90;;;;;;5088549;28;20104;-71
2023/07/26 00:46:31;;;;;;;6.97;2.35;;;13.80;99.90;;;;;;5078841;28;20056;-71
2023/07/26 00:48:58;;;;;;;6.75;2.03;;;13.80;99.90;;;;;;5070052;28;20422;-71
2023/07/26 00:51:25;;;;;;;5.78;2.00;;;13.80;99.90;;;;;;5070277;28;20488;-71
2023/07/26 00:53:51;;;;;;;3.88;1.92;;;13.80;99.90;;;;;;5086007;28;20047;-71
2023/07/26 00:56:17;;;;;;;6.13;2.17;;;13.80;99.90;;;;;;5089923;28;20044;-71
2023/07/26 00:58:43;;;;;;;7.03;2.42;;;13.70;99.90;;;;;;5090093;28;20565;-71
2023/07/26 01:01:09;;;;;;;5.85;2.47;;;13.70;99.90;;;;;;5089948;28;20178;-71
2023/07/26 01:03:35;;;;;;;6.70;2.30;;;13.70;99.90;;;;;;5089628;28;20036;-70
2023/07/26 01:06:40;;;;;;;6.10;2.42;;;13.70;99.90;;;;;;5090102;28;20493;-70
2023/07/26 01:09:28;;;;;;;6.93;2.10;;;13.70;99.90;;;;;;5087689;28;20577;-71
2023/07/26 01:12:06;;;;;;;6.60;2.20;;;13.70;99.90;;;;;;5088761;28;20044;-70
2023/07/26 01:14:43;;;;;;;4.63;2.00;;;13.70;99.90;;;;;;5070304;28;20098;-71
2023/07/26 01:17:09;;;;;;;4.22;1.80;;;13.70;99.90;;;;;;5089119;28;20048;-71
2023/07/26 01:19:35;;;;;;;5.95;2.30;;;13.60;99.90;;;;;;5088530;28;20058;-71
2023/07/26 01:22:01;;;;;;;6.10;2.25;;;13.80;99.90;;;;;;5088842;28;20079;-71
2023/07/26 01:24:27;;;;;;;4.75;2.00;;;13.60;99.90;;;;;;5061970;28;20044;-71
2023/07/26 01:26:52;;;;;;;6.13;2.15;;;13.60;99.90;;;;;;5069612;28;20040;-71
2023/07/26 01:29:18;;;;;;;4.90;2.55;;;13.60;99.90;;;;;;5069136;28;20143;-71
2023/07/26 01:31:44;;;;;;;5.63;2.00;;;13.60;99.90;;;;;;5083597;28;20036;-71
2023/07/26 01:34:12;;;;;;;5.47;2.20;;;13.50;99.90;;;;;;5085793;28;20142;-70
2023/07/26 01:36:39;;;;;;;5.88;2.20;;;13.50;99.90;;;;;;5087437;28;20082;-70
2023/07/26 01:39:05;;;;;;;6.15;2.13;;;13.50;99.90;;;;;;5087608;28;20070;-71
2023/07/26 01:41:31;;;;;;;5.80;2.03;;;13.50;99.90;;;;;;5087419;28;20055;-71
2023/07/26 01:43:57;;;;;;;5.60;2.03;;;13.50;99.90;;;;;;5079082;28;20051;-71
2023/07/26 01:46:22;;;;;;;7.75;2.40;;;13.40;99.90;;;;;;5089127;28;20044;-71
2023/07/26 01:48:48;;;;;;;6.18;2.05;;;13.40;99.90;;;;;;5087470;28;20053;-70
2023/07/26 01:51:14;;;;;;;3.95;1.83;;;13.40;99.90;;;;;;5085223;28;20089;-71
2023/07/26 01:53:40;;;;;;;7.03;2.40;;;13.40;99.90;;;;;;5089004;28;20519;-71
2023/07/26 01:56:05;;;;;;;5.18;2.05;;;13.30;99.90;;;;;;5089167;28;20075;-71
2023/07/26 01:58:31;;;;;;;6.75;2.30;;;13.30;99.90;;;;;;5088967;28;20040;-71
2023/07/26 02:00:57;;;;;;;6.00;2.47;;;13.30;99.90;;;;;;5081860;28;20040;-71
2023/07/26 02:03:23;;;;;;;6.18;2.13;;;13.30;99.90;;;;;;5077281;28;20097;-71
2023/07/26 02:05:48;;;;;;;6.70;2.50;;;13.30;99.90;;;;;;5089272;28;20144;-70
2023/07/26 02:08:18;;;;;;;4.82;2.03;;;13.20;99.90;;;;;;5077236;28;20055;-70
2023/07/26 02:10:44;;;;;;;5.10;2.38;;;13.20;99.90;;;;;;5073073;28;20055;-71
2023/07/26 02:13:10;;;;;;;5.03;2.22;;;13.20;99.90;;;;;;5089069;28;20048;-71
2023/07/26 02:15:36;;;;;;;9.27;2.70;;;13.20;99.90;;;;;;5089419;28;20124;-70
2023/07/26 02:18:01;;;;;;;6.45;2.50;;;13.20;99.90;;;;;;5088527;28;20056;-71
2023/07/26 02:20:27;;;;;;;6.20;2.28;;;13.10;99.90;;;;;;5088186;28;20044;-71
2023/07/26 02:22:53;;;;;;;5.05;2.30;;;13.10;99.90;;;;;;5088697;28;20096;-70
2023/07/26 02:25:19;;;;;;;4.45;2.22;;;13.10;99.90;;;;;;5069812;28;20056;-70
2023/07/26 02:27:45;;;;;;;5.53;2.35;;;13.10;99.90;;;;;;5068197;28;20051;-71
2023/07/26 02:30:11;;;;;;;6.30;2.30;;;13.10;99.90;;;;;;5083687;28;20044;-70
2023/07/26 02:32:36;;;;;;;5.97;2.35;;;13.10;99.90;;;;;;5088103;28;20208;-70
2023/07/26 02:35:02;;;;;;;6.90;2.47;;;13.10;99.90;;;;;;5086826;28;20043;-71
2023/07/26 02:37:28;;;;;;;6.63;2.50;;;13.00;99.90;;;;;;5087453;28;20047;-70
2023/07/26 02:39:53;;;;;;;6.53;2.40;;;13.00;99.90;;;;;;5088252;28;20042;-70
2023/07/26 02:42:19;;;;;;;5.97;2.13;;;13.00;99.90;;;;;;5068122;28;20420;-71
2023/07/26 02:44:47;;;;;;;5.25;2.13;;;12.90;99.90;;;;;;5078584;28;20128;-70
2023/07/26 02:47:13;;;;;;;8.00;2.50;;;12.90;99.90;;;;;;5088306;28;20788;-71
2023/07/26 02:49:39;;;;;;;5.90;2.60;;;12.90;99.90;;;;;;5088052;28;20048;-70
2023/07/26 02:52:05;;;;;;;6.40;2.35;;;12.90;99.90;;;;;;5087963;28;20119;-70
2023/07/26 02:54:30;;;;;;;7.00;2.95;;;12.80;99.90;;;;;;5083589;28;20079;-70
2023/07/26 02:56:56;;;;;;;6.25;2.72;;;12.80;99.90;;;;;;5067620;28;20492;-70
2023/07/26 02:59:22;;;;;;;6.32;2.67;;;12.80;99.90;;;;;;5066117;28;20049;-71
2023/07/26 03:01:49;;;;;;;5.68;2.70;;;12.80;99.90;;;;;;5080609;28;20079;-70
2023/07/26 03:04:15;;;;;;;5.68;2.67;;;12.70;99.90;;;;;;5087303;28;20656;-70
2023/07/26 03:06:41;;;;;;;6.13;2.80;;;12.70;99.90;;;;;;5083600;28;20044;-70
2023/07/26 03:09:06;;;;;;;6.00;2.50;;;12.70;99.90;;;;;;5067386;28;20205;-70
2023/07/26 03:11:32;;;;;;;6.57;2.83;;;12.60;99.90;;;;;;5067132;28;20157;-70
2023/07/26 03:13:58;;;;;;;7.05;2.42;;;12.60;99.90;;;;;;5080672;28;20040;-70
2023/07/26 03:16:24;;;;;;;5.65;2.40;;;12.60;99.90;;;;;;5087671;28;20047;-70
2023/07/26 03:18:50;;;;;;;6.32;2.45;;;12.60;99.90;;;;;;5086811;28;20052;-70
2023/07/26 03:21:15;;;;;;;5.65;2.30;;;12.60;99.90;;;;;;5087037;28;20374;-70
2023/07/26 03:23:41;;;;;;;8.07;2.60;;;12.60;99.90;;;;;;5087179;28;20043;-70
2023/07/26 03:26:07;;;;;;;7.32;2.78;;;12.50;99.90;;;;;;5075195;28;20174;-70
2023/07/26 03:28:33;;;;;;;7.57;2.55;;;12.50;99.90;;;;;;5067831;28;20127;-71
2023/07/26 03:31:00;;;;;;;4.22;1.70;;;12.50;99.90;;;;;;5070636;28;20086;-70
2023/07/26 03:33:26;;;;;;;5.95;2.35;;;12.50;99.90;;;;;;5074967;28;20574;-71
2023/07/26 03:35:52;;;;;;;5.68;2.53;;;12.50;99.90;;;;;;5085889;28;20044;-70
2023/07/26 03:38:18;;;;;;;6.90;2.63;;;12.50;99.90;;;;;;5073738;28;20032;-71
2023/07/26 03:40:44;;;;;;;5.30;2.65;;;12.50;99.90;;;;;;5081060;28;20044;-71
2023/07/26 03:43:10;;;;;;;6.85;2.70;;;12.50;99.90;;;;;;5083969;28;20044;-71
2023/07/26 03:45:35;;;;;;;8.35;3.33;;;12.50;99.90;;;;;;5083806;28;20101;-70
2023/07/26 03:48:01;;;;;;;8.65;3.30;;;12.50;99.90;;;;;;5083455;28;20074;-71
2023/07/26 03:50:27;;;;;;;5.68;2.60;;;12.50;99.90;;;;;;5082625;28;20055;-71
2023/07/26 03:52:53;;;;;;;7.75;3.08;;;12.50;99.90;;;;;;5085732;28;20040;-70
2023/07/26 03:55:18;;;;;;;6.97;3.20;;;12.50;99.90;;;;;;5083362;28;20558;-70
2023/07/26 03:57:44;;;;;;;6.35;2.70;;;12.50;99.90;;;;;;5084743;28;20044;-70
2023/07/26 04:00:11;;;;;;;5.65;3.03;;;12.50;99.90;;;;;;5078329;28;20044;-70
2023/07/26 04:02:36;;;;;;;5.15;2.67;;;12.50;99.90;;;;;;5086485;28;20051;-70
2023/07/26 04:05:02;;;;;;;7.93;2.70;;;12.50;99.90;;;;;;5082783;28;20062;-70
2023/07/26 04:07:28;;;;;;;6.95;3.25;;;12.50;99.90;;;;;;5088048;28;20072;-70
2023/07/26 04:09:54;;;;;;;8.50;3.25;;;12.50;99.90;;;;;;5088702;28;20068;-70
2023/07/26 04:12:19;;;;;;;7.80;3.40;;;12.50;99.90;;;;;;5083085;28;20044;-70
2023/07/26 04:14:46;;;;;;;6.20;2.42;;;12.50;99.90;;;;;;5088423;28;20043;-70
2023/07/26 04:17:12;;;;;;;9.07;3.10;;;12.50;99.90;;;;;;5089490;28;20087;-70
2023/07/26 04:19:38;;;;;;;6.10;3.20;;;12.50;99.90;;;;;;5087673;28;20076;-70
2023/07/26 04:22:04;;;;;;;6.93;3.10;;;12.50;99.90;;;;;;5088991;28;20044;-70
2023/07/26 04:24:30;;;;;;;7.82;3.30;;;12.50;99.90;;;;;;5089288;28;20048;-70
2023/07/26 04:26:55;;;;;;;8.88;2.70;;;12.50;99.90;;;;;;5088384;28;20054;-70
2023/07/26 04:29:22;;;;;;;5.95;3.28;;;12.50;99.90;;;;;;5089293;28;20040;-70
2023/07/26 04:31:47;;;;;;;8.77;3.30;;;12.50;99.90;;;;;;5089150;28;20040;-70
2023/07/26 04:34:14;;;;;;;6.47;3.17;;;12.40;99.90;;;;;;5087581;28;20092;-70
2023/07/26 04:36:41;;;;;;;6.03;3.25;;;12.40;99.90;;;;;;5089705;28;20462;-70
2023/07/26 04:39:07;;;;;;;7.18;3.22;;;12.40;99.90;;;;;;5090552;28;20512;-71
2023/07/26 04:41:32;;;;;;;11.88;3.30;;;12.40;99.90;;;;;;5082604;28;20072;-70
2023/07/26 04:43:58;;;;;;;6.88;3.35;;;12.40;99.90;;;;;;5091105;28;20051;-71
2023/07/26 04:46:25;;;;;;;7.38;3.10;;;12.40;99.90;;;;;;5090789;28;20039;-70
2023/07/26 04:48:51;;;;;;;9.35;3.20;;;12.50;99.90;;;;;;5089625;28;20105;-70
2023/07/26 04:51:16;;;;;;;8.48;3.10;;;12.50;99.90;;;;;;5090505;28;20051;-70
2023/07/26 04:53:42;;;;;;;5.50;2.53;;;12.50;99.90;;;;;;5090355;28;20087;-70
2023/07/26 04:56:08;;;;;;;8.27;3.05;;;12.60;99.90;;;;;;5090664;28;20127;-70
2023/07/26 04:58:33;;;;;;;6.35;2.50;;;12.70;99.90;;;;;;5089043;28;20354;-70
2023/07/26 05:00:59;;;;;;;5.55;2.25;;;13.00;99.90;;;;;;5082317;28;20048;-70
2023/07/26 05:03:25;;;;;;;8.25;2.50;;;13.20;99.90;;;;;;5069940;28;20459;-70
2023/07/26 05:05:51;;;;;;;5.15;2.22;;;13.30;99.90;;;;;;5068402;28;20052;-70
2023/07/26 05:08:18;;;;;;;7.25;2.42;;;13.30;99.90;;;;;;5069391;28;20090;-71
2023/07/26 05:10:48;;;;;;;6.00;2.40;;;13.30;99.90;;;;;;5070241;28;20129;-71
2023/07/26 05:13:14;;;;;;;6.03;2.28;;;13.30;99.90;;;;;;5069858;28;20513;-70
2023/07/26 05:15:40;;;;;;;6.63;2.40;;;13.30;99.90;;;;;;5069618;28;20052;-70
2023/07/26 05:18:05;;;;;;;6.43;2.08;;;13.30;99.90;;;;;;5067476;28;20084;-70
2023/07/26 05:20:31;;;;;;;8.13;2.70;;;13.30;99.90;;;;;;5069663;28;20119;-70
2023/07/26 05:22:57;;;;;;;5.30;2.22;;;13.30;99.90;;;;;;5069479;28;20581;-70
2023/07/26 05:25:23;;;;;;;5.97;2.10;;;13.30;99.90;;;;;;5087210;28;20102;-70
2023/07/26 05:27:48;;;;;;;7.00;2.33;;;13.30;99.90;;;;;;5090094;28;20086;-70
2023/07/26 05:30:20;;;;;;;6.10;2.17;;;13.40;99.90;;;;;;5089630;28;20572;-69
2023/07/26 05:32:46;;;;;;;7.60;2.20;;;13.40;99.90;;;;;;5089377;28;20055;-71
2023/07/26 05:35:12;;;;;;;5.53;1.85;;;13.30;99.90;;;;;;5089371;28;20127;-71
2023/07/26 05:37:38;;;;;;;5.57;1.98;;;13.30;99.90;;;;;;5089919;28;20671;-71
2023/07/26 05:40:07;;;;;;;4.68;1.70;;;13.30;99.90;;;;;;5089543;28;20040;-71
2023/07/26 05:42:34;;;;;;;6.30;2.13;;;13.30;99.90;;;;;;5081410;28;20562;-70
2023/07/26 05:44:59;;;;;;;5.95;2.15;;;13.30;99.90;;;;;;5089534;28;20086;-71
2023/07/26 05:47:25;;;;;;;5.82;2.00;;;13.30;99.90;;;;;;5089595;28;20044;-71
2023/07/26 05:49:51;;;;;;;8.63;2.17;;;13.30;99.90;;;;;;5089034;28;20044;-71
2023/07/26 05:52:17;;;;;;;7.03;2.22;;;13.30;99.90;;;;;;5089016;28;20044;-70
2023/07/26 05:54:43;;;;;;;7.28;2.00;;;13.30;99.90;;;;;;5089200;28;20044;-71
2023/07/26 05:57:09;;;;;;;7.38;1.88;;;13.30;99.90;;;;;;5088904;28;20050;-71
2023/07/26 05:59:35;;;;;;;5.20;2.00;;;13.20;99.90;;;;;;5087997;28;20040;-71
2023/07/26 06:02:00;;;;;;;6.15;2.17;;;13.30;99.90;;;;;;5088912;28;20109;-71
2023/07/26 06:04:28;;;;;;;8.48;2.13;;;13.30;99.90;;;;;;5088606;28;20059;-71
2023/07/26 06:06:55;;;;;;;5.78;2.30;;;13.30;99.90;;;;;;5088249;28;20129;-71
2023/07/26 06:09:21;;;;;;;5.35;2.13;;;13.30;99.90;;;;;;5089129;28;20040;-69
2023/07/26 06:11:47;;;;;;;7.20;2.30;;;13.30;99.90;;;;;;5088945;28;20039;-70
2023/07/26 06:14:13;;;;;;;7.47;2.22;;;13.30;99.90;;;;;;5087768;28;20051;-70
2023/07/26 06:16:39;;;;;;;7.55;2.00;;;13.30;99.90;;;;;;5089245;28;20087;-70
2023/07/26 06:19:05;;;;;;;4.88;2.17;;;13.30;99.90;;;;;;5088821;28;20093;-70
2023/07/26 06:21:30;;;;;;;4.88;2.00;;;13.40;99.90;;;;;;5088800;28;20051;-70
2023/07/26 06:23:56;;;;;;;5.78;2.10;;;13.40;99.90;;;;;;5088756;28;20044;-70
2023/07/26 06:26:22;;;;;;;7.57;2.17;;;13.40;99.90;;;;;;5088707;28;20134;-70
2023/07/26 06:28:47;;;;;;;5.80;2.00;;;13.40;99.90;;;;;;5087829;28;20047;-70
2023/07/26 06:31:13;;;;;;;8.13;2.38;;;13.40;99.90;;;;;;5088779;28;20040;-70
2023/07/26 06:33:39;;;;;;;8.73;2.90;;;13.40;99.90;;;;;;5088462;28;20455;-72
2023/07/26 06:36:06;;;;;;;6.10;2.30;;;13.40;99.90;;;;;;5088804;28;20131;-70
2023/07/26 06:38:32;;;;;;;8.20;1.75;;;13.50;99.90;;;;;;5088713;28;20518;-70
2023/07/26 06:40:58;;;;;;;6.47;2.22;;;13.50;99.90;;;;;;5081306;28;20475;-70
2023/07/26 06:43:24;;;;;;;6.70;2.17;;;13.50;99.90;;;;;;5087161;28;20062;-70
2023/07/26 06:45:52;;;;;;;6.10;2.13;;;13.60;99.90;;;;;;5088372;28;20102;-70
2023/07/26 06:48:19;;;;;;;5.72;2.03;;;13.60;99.90;;;;;;5087385;28;20051;-70
2023/07/26 06:50:45;;;;;;;5.45;2.10;;;13.60;99.90;;;;;;5087776;28;20048;-70
2023/07/26 06:53:11;;;;;;;4.88;1.98;;;13.60;99.90;;;;;;5087454;28;20043;-70
2023/07/26 06:55:37;;;;;;;7.82;2.28;;;13.60;99.90;;;;;;5087672;28;20412;-70
2023/07/26 06:58:03;;;;;;;6.68;2.17;;;13.60;99.90;;;;;;5086634;28;20044;-70
2023/07/26 07:00:29;;;;;;;5.28;1.92;;;13.60;99.90;;;;;;5088093;28;20043;-70
2023/07/26 07:02:59;;;;;;;5.78;2.25;;;13.60;99.90;;;;;;5087839;28;20075;-71
2023/07/26 07:05:27;;;;;;;5.60;1.98;;;13.60;99.90;;;;;;5087874;28;20402;-71
2023/07/26 07:07:52;;;;;;;5.93;1.95;;;13.60;99.90;;;;;;5087599;28;20044;-71
2023/07/26 07:10:18;;;;;;;5.43;2.10;;;13.60;99.90;;;;;;5088059;28;20036;-69
2023/07/26 07:12:44;;;;;;;5.50;2.15;;;13.60;99.90;;;;;;5086619;28;20105;-69
2023/07/26 07:15:10;;;;;;;6.70;2.00;;;13.60;99.90;;;;;;5087574;28;20043;-70
2023/07/26 07:17:36;;;;;;;5.10;2.20;;;13.70;99.90;;;;;;5087810;28;20048;-70
2023/07/26 07:20:02;;;;;;;4.95;2.13;;;13.70;99.90;;;;;;5087668;28;20547;-70
2023/07/26 07:22:28;;;;;;;6.05;2.50;;;13.80;99.90;;;;;;5087559;28;20048;-70
2023/07/26 07:24:54;;;;;;;5.05;1.90;;;13.80;99.90;;;;;;5087429;28;20542;-71
2023/07/26 07:27:23;;;;;;;5.15;2.20;;;14.00;99.90;;;;;;5087513;28;20067;-71
2023/07/26 07:29:49;;;;;;;7.93;2.13;;;14.10;99.90;;;;;;5086613;28;20417;-71
2023/07/26 07:32:16;;;;;;;6.82;2.10;;;14.20;99.90;;;;;;5087615;28;20079;-71
2023/07/26 07:34:42;;;;;;;4.32;1.92;;;14.20;99.90;;;;;;5087400;28;20465;-71
2023/07/26 07:37:10;;;;;;;7.10;2.05;;;14.30;99.90;;;;;;5087633;28;20083;-71
2023/07/26 07:39:36;;;;;;;4.30;1.75;;;14.30;99.90;;;;;;5087246;28;20046;-72
2023/07/26 07:42:02;;;;;;;5.20;2.03;;;14.40;99.90;;;;;;5081266;28;20075;-70
2023/07/26 07:44:28;;;;;;;4.45;1.52;;;14.50;99.90;;;;;;5087075;28;20043;-71
2023/07/26 07:46:54;;;;;;;3.13;1.50;;;14.60;99.90;;;;;;5087502;28;20446;-71
2023/07/26 07:49:20;;;;;;;6.00;1.67;;;14.70;99.90;;;;;;5086348;28;20373;-71
2023/07/26 07:51:45;;;;;;;4.72;1.80;;;14.90;99.90;;;;;;5087556;28;20040;-72
2023/07/26 07:54:11;;;;;;;4.60;2.00;;;15.00;99.90;;;;;;5086938;28;20055;-72
2023/07/26 07:56:38;;;;;;;5.07;1.80;;;15.10;99.90;;;;;;5087608;28;20040;-71
2023/07/26 07:59:04;;;;;;;7.35;2.85;;;15.30;99.90;;;;;;5087057;28;20040;-72
2023/07/26 08:01:30;;;;;;;4.72;1.85;;;15.40;99.90;;;;;;5087313;28;20407;-72
2023/07/26 08:03:58;;;;;;;5.35;1.80;;;15.50;99.90;;;;;;5069080;28;20040;-72
2023/07/26 08:06:24;;;;;;;4.30;2.13;;;15.60;99.90;;;;;;5086815;28;20090;-72
2023/07/26 08:08:50;;;;;;;4.40;2.00;;;15.80;99.90;;;;;;5085718;28;20079;-72
2023/07/26 08:11:15;;;;;;;6.28;2.10;;;15.80;99.90;;;;;;5087004;28;20463;-72
2023/07/26 08:13:42;;;;;;;3.88;1.70;;;16.00;99.90;;;;;;5085203;28;20058;-72
2023/07/26 08:16:08;;;;;;;4.22;1.50;;;16.10;99.90;;;;;;5087419;28;20055;-71
2023/07/26 08:18:34;;;;;;;4.00;1.60;;;16.10;99.90;;;;;;5086886;28;20048;-72
2023/07/26 08:21:00;;;;;;;4.07;1.60;;;16.10;99.90;;;;;;5083360;28;20123;-71
2023/07/26 08:23:26;;;;;;;3.28;1.45;;;16.10;99.90;;;;;;5067865;28;20043;-72
2023/07/26 08:25:52;;;;;;;6.13;1.85;;;16.00;99.90;;;;;;5087046;28;20040;-72
2023/07/26 08:28:17;;;;;;;4.88;1.90;;;15.80;99.90;;;;;;5086937;28;20074;-72
2023/07/26 08:30:43;;;;;;;4.82;1.63;;;15.80;99.90;;;;;;5086712;28;20074;-72
2023/07/26 08:33:09;;;;;;;4.32;1.90;;;15.80;99.90;;;;;;5086935;28;20052;-71
2023/07/26 08:35:35;;;;;;;4.47;2.00;;;15.80;99.90;;;;;;5086933;28;20489;-72
2023/07/26 08:38:00;;;;;;;4.63;1.92;;;15.90;99.90;;;;;;5086630;28;20048;-72
2023/07/26 08:40:26;;;;;;;4.72;2.13;;;16.10;99.90;;;;;;5080532;28;20151;-72
2023/07/26 08:42:53;;;;;;;4.90;2.17;;;16.20;99.90;;;;;;5066966;28;20047;-72
2023/07/26 08:45:19;;;;;;;5.30;2.17;;;16.40;99.90;;;;;;5071250;28;20044;-72
2023/07/26 08:47:46;;;;;;;4.28;1.75;;;16.40;99.90;;;;;;5077346;28;20044;-72
2023/07/26 08:50:12;;;;;;;4.80;2.03;;;16.50;99.90;;;;;;5074358;28;20048;-72
2023/07/26 08:52:37;;;;;;;5.25;2.38;;;16.60;99.90;;;;;;5067997;28;20550;-72
2023/07/26 08:55:04;;;;;;;6.60;2.20;;;16.60;99.90;;;;;;5069530;28;20056;-72
2023/07/26 08:57:30;;;;;;;4.82;2.22;;;16.60;99.90;;;;;;5068536;28;20048;-72
2023/07/26 08:59:55;;;;;;;5.68;2.53;;;16.60;99.90;;;;;;5069214;28;20044;-72
2023/07/26 09:02:22;;;;;;;6.82;2.55;;;16.60;99.90;;;;;;5069198;28;20048;-72
2023/07/26 09:04:48;;;;;;;9.43;2.70;;;16.70;99.90;;;;;;5069988;28;20101;-72
2023/07/26 09:07:14;;;;;;;4.35;2.25;;;16.80;99.90;;;;;;5076668;28;20052;-72
2023/07/26 09:09:40;;;;;;;5.30;2.40;;;17.00;99.90;;;;;;5090275;28;20136;-72
2023/07/26 09:12:10;;;;;;;5.60;2.40;;;17.10;99.90;;;;;;5089649;28;20040;-73
2023/07/26 09:14:35;;;;;;;4.78;2.35;;;17.20;99.90;;;;;;5079225;28;20952;-73
2023/07/26 09:17:03;;;;;;;4.35;1.90;;;17.30;99.90;;;;;;5069837;28;20128;-73
2023/07/26 09:19:31;;;;;;;7.55;2.40;;;17.30;99.90;;;;;;5070170;28;20048;-73
2023/07/26 09:21:59;;;;;;;5.18;2.40;;;17.40;99.90;;;;;;5069925;28;20044;-73
2023/07/26 09:24:36;;;;;;;5.40;2.80;;;17.50;99.90;;;;;;5079980;28;20047;-73
2023/07/26 09:27:15;;;;;;;5.45;2.30;;;17.50;99.90;;;;;;5069857;28;20036;-73
2023/07/26 09:29:52;;;;;;;5.65;2.88;;;17.60;99.90;;;;;;5069654;28;20147;-74
2023/07/26 09:32:26;;;;;;;5.57;2.40;;;17.70;99.90;;;;;;5069846;28;20508;-73
2023/07/26 09:34:52;;;;;;;6.22;2.22;;;17.80;99.90;;;;;;5067550;28;20037;-74
2023/07/26 09:37:21;;;;;;;7.40;2.60;;;17.90;99.90;;;;;;5084448;28;20046;-75
2023/07/26 09:39:46;;;;;;;5.45;2.35;;;18.00;99.90;;;;;;5089414;28;20044;-74
2023/07/26 09:42:12;;;;;;;7.68;2.40;;;18.00;99.90;;;;;;5089365;28;20044;-72
2023/07/26 09:44:38;;;;;;;6.75;2.28;;;18.00;99.90;;;;;;5089770;28;20500;-72
2023/07/26 09:47:04;;;;;;;5.40;1.90;;;17.80;99.90;;;;;;5089083;28;20036;-73
2023/07/26 09:49:30;;;;;;;6.15;2.38;;;17.70;99.90;;;;;;5089160;28;20063;-73
2023/07/26 09:52:01;;;;;;;4.30;2.10;;;17.50;99.90;;;;;;5087691;28;20059;-73
2023/07/26 09:54:32;;;;;;;4.93;2.35;;;17.40;99.90;;;;;;5088856;28;20095;-73
2023/07/26 09:56:58;;;;;;;6.55;2.45;;;17.30;99.90;;;;;;5089558;28;20048;-73
2023/07/26 09:59:26;;;;;;;6.32;2.10;;;17.30;99.90;;;;;;5088981;28;20466;-73
2023/07/26 10:01:54;;;;;;;4.43;2.20;;;17.40;99.90;;;;;;5088533;28;20052;-74
2023/07/26 10:04:33;;;;;;;5.72;2.33;;;17.50;99.90;;;;;;5088580;28;20086;-74
2023/07/26 10:07:02;;;;;;;6.60;2.10;;;17.50;99.90;;;;;;5088832;28;20044;-73
2023/07/26 10:09:32;;;;;;;4.35;1.95;;;17.60;99.90;;;;;;5080053;28;20044;-73
2023/07/26 10:12:00;;;;;;;4.32;1.80;;;17.70;99.90;;;;;;5080013;28;20024;-74
2023/07/26 10:14:26;;;;;;;4.72;2.08;;;17.80;99.90;;;;;;5086137;28;20044;-74
2023/07/26 10:16:54;;;;;;;5.55;1.98;;;17.70;99.90;;;;;;5084699;28;20526;-74
2023/07/26 10:19:22;;;;;;;5.20;2.30;;;17.60;99.90;;;;;;5081065;28;20070;-74
2023/07/26 10:21:49;;;;;;;4.85;2.05;;;17.60;99.90;;;;;;5083580;28;20043;-74
2023/07/26 10:24:16;;;;;;;3.40;1.50;;;17.60;99.90;;;;;;5083173;28;20115;-74
2023/07/26 10:26:43;;;;;;;2.85;1.30;;;17.60;99.90;;;;;;5086561;28;20042;-74
2023/07/26 10:29:09;;;;;;;3.50;1.65;;;17.70;99.90;;;;;;5085305;28;20071;-75
2023/07/26 10:31:35;;;;;;;3.15;1.40;;;17.70;99.90;;;;;;5088128;28;20123;-74
2023/07/26 10:34:02;;;;;;;4.45;2.10;;;17.80;99.90;;;;;;5087992;28;20044;-75
2023/07/26 10:36:32;;;;;;;4.93;1.90;;;17.90;99.90;;;;;;5087779;28;20503;-75
2023/07/26 10:39:05;;;;;;;3.47;1.60;;;18.00;99.90;;;;;;5087094;28;20048;-75
2023/07/26 10:41:32;;;;;;;5.70;1.88;;;18.10;99.90;;;;;;5086377;28;20040;-73
2023/07/26 10:44:05;;;;;;;4.82;1.80;;;18.10;99.90;;;;;;5087385;28;20058;-75
2023/07/26 10:46:50;;;;;;;6.47;2.10;;;18.20;99.90;;;;;;5087186;28;20044;-75
2023/07/26 10:49:20;;;;;;;4.43;1.90;;;18.20;99.90;;;;;;5085571;28;20074;-75
2023/07/26 10:52:02;;;;;;;5.37;1.80;;;18.30;99.90;;;;;;5083553;28;20048;-75
2023/07/26 10:54:33;;;;;;;4.25;1.90;;;18.30;99.90;;;;;;5077671;28;20040;-74
2023/07/26 10:57:22;;;;;;;5.20;2.00;;;18.20;99.90;;;;;;5082707;28;20082;-74
2023/07/26 11:00:04;;;;;;;2.42;1.05;;;18.10;99.90;;;;;;5083069;28;20768;-74
2023/07/26 11:03:00;;;;;;;2.42;0.90;;;18.00;99.90;;;;;;5084309;28;20044;-74
2023/07/26 11:05:29;;;;;;;3.35;1.05;;;17.80;99.90;;;;;;5063476;28;20904;-72
2023/07/26 11:08:03;;;;;;;2.63;0.90;;;17.50;99.90;;;;;;5081873;28;20520;-72
2023/07/26 11:10:48;;;;;;;6.13;1.30;;;17.30;99.90;;;;;;5088230;28;20055;-71
2023/07/26 11:13:27;;;;;;;5.53;1.50;;;17.10;99.90;;;;;;5087880;28;20412;-70
2023/07/26 11:15:53;;;;;;;9.23;2.08;;;16.80;99.90;;;;;;5074126;28;20059;-71
2023/07/26 11:18:20;;;;;;;6.53;1.40;;;16.60;99.90;;;;;;5067065;28;20049;-71
2023/07/26 11:20:51;;;;;;;5.18;1.40;;;16.40;99.90;;;;;;5067457;28;20044;-71
2023/07/26 11:23:28;;;;;;;4.45;1.42;;;16.30;99.90;;;;;;5077364;28;20052;-72
2023/07/26 11:25:59;;;;;;;3.45;1.25;;;16.30;99.90;;;;;;5085930;28;20067;-72
2023/07/26 11:28:32;;;;;;;6.00;1.58;;;16.30;99.90;;;;;;5086045;28;20044;-72
2023/07/26 11:30:59;;;;;;;5.45;2.28;;;16.30;99.90;;;;;;5084757;28;20048;-72
2023/07/26 11:33:34;;;;;;;3.60;1.77;;;16.30;99.90;;;;;;5087081;28;20135;-72
2023/07/26 11:36:02;;;;;;;9.35;1.92;;;16.40;99.90;;;;;;5084051;28;20709;-72
2023/07/26 11:38:28;;;;;;;3.47;1.30;;;16.50;99.90;;;;;;5087440;28;20618;-72
2023/07/26 11:40:56;;;;;;;2.70;1.30;;;16.50;99.90;;;;;;5087057;28;20173;-72
2023/07/26 11:43:23;;;;;;;1.67;0.80;;;16.50;99.90;;;;;;5087061;28;20048;-73
2023/07/26 11:45:49;;;;;;;5.15;1.15;;;16.60;99.90;;;;;;5086430;28;20511;-73
2023/07/26 11:48:15;;;;;;;3.20;0.95;;;16.60;99.90;;;;;;5086821;28;20040;-72
2023/07/26 11:50:42;;;;;;;2.70;1.08;;;16.60;99.90;;;;;;5087694;28;20040;-73
2023/07/26 11:53:09;;;;;;;4.80;1.48;;;16.60;99.90;;;;;;5087240;28;20055;-73
2023/07/26 11:55:38;;;;;;;5.03;1.40;;;16.50;99.90;;;;;;5079904;28;20558;-73
2023/07/26 11:58:09;;;;;;;2.85;1.33;;;16.60;99.90;;;;;;5064164;28;20055;-73
2023/07/26 12:00:37;;;;;;;5.10;1.80;;;16.60;99.90;;;;;;5066658;28;20115;-73
2023/07/26 12:03:04;;;;;;;5.60;1.98;;;16.70;99.90;;;;;;5066513;28;20079;-73
2023/07/26 12:05:30;;;;;;;7.32;1.80;;;16.80;99.90;;;;;;5072105;28;20124;-73
2023/07/26 12:07:58;;;;;;;5.95;1.95;;;16.80;99.90;;;;;;5085110;28;20048;-73
2023/07/26 12:10:45;;;;;;;5.10;2.15;;;17.00;99.90;;;;;;5086202;28;20043;-73
2023/07/26 12:13:23;;;;;;;5.53;1.90;;;17.10;99.90;;;;;;5086534;28;20051;-73
2023/07/26 12:15:55;;;;;;;4.78;1.75;;;17.30;99.90;;;;;;5085285;28;20032;-72
2023/07/26 12:18:22;;;;;;;6.07;2.20;;;17.40;99.90;;;;;;5084938;28;20041;-74
2023/07/26 12:21:04;;;;;;;4.78;1.92;;;17.50;99.90;;;;;;5086956;28;20087;-72
2023/07/26 12:23:57;;;;;;;7.95;2.88;;;17.60;99.90;;;;;;5084475;28;20054;-73
2023/07/26 12:26:31;;;;;;;5.22;2.00;;;17.70;99.90;;;;;;5085154;28;20048;-73
2023/07/26 12:28:59;;;;;;;6.60;1.80;;;17.80;99.90;;;;;;5090685;28;20043;-73
2023/07/26 12:31:27;;;;;;;6.28;2.05;;;17.90;99.90;;;;;;5089716;28;20044;-74
2023/07/26 12:34:06;;;;;;;6.35;1.58;;;18.00;99.90;;;;;;5079904;28;20117;-73
2023/07/26 12:36:38;;;;;;;5.68;1.63;;;18.10;99.90;;;;;;5089102;28;20044;-73
2023/07/26 12:39:09;;;;;;;5.45;1.48;;;18.10;99.90;;;;;;5090601;28;20131;-73
2023/07/26 12:41:35;;;;;;;6.93;1.65;;;18.20;99.90;;;;;;5081864;28;20044;-72
2023/07/26 12:44:03;;;;;;;5.03;1.10;;;18.30;99.90;;;;;;5089120;28;20101;-73
2023/07/26 12:46:29;;;;;;;6.18;2.05;;;18.40;99.90;;;;;;5071782;28;20531;-73
2023/07/26 12:48:56;;;;;;;3.70;1.40;;;18.40;99.90;;;;;;5090206;28;20079;-73